Time;durP1;ratioP1;P1;durP2;ratioP2;P2;SDS_P1;SDS_P2;PMS_P1;PMS_P2;Temp;Humidity;BMP_temperature;BMP_pressure;BME280_temperature;BME280_humidity;BME280_pressure;Samples;Min_cycle;Max_cycle;Signal;HPM_P1;HPM_P2
2022/05/16 00:00:37;;;;;;;1.90;0.60;;;10.80;99.90;;;;;;5114735;28;20168;-91
2022/05/16 00:03:07;;;;;;;3.03;0.53;;;11.00;65.80;;;;;;5114242;28;20415;-90
2022/05/16 00:05:33;;;;;;;2.20;0.50;;;11.00;73.40;;;;;;5115514;28;20446;-89
2022/05/16 00:08:00;;;;;;;2.73;0.77;;;11.00;55.60;;;;;;5114574;28;20415;-88
2022/05/16 00:10:26;;;;;;;2.00;0.50;;;10.80;90.30;;;;;;5113537;28;20420;-88
2022/05/16 00:12:52;;;;;;;0.90;0.50;;;10.80;89.40;;;;;;5113843;28;20418;-90
2022/05/16 00:15:20;;;;;;;2.00;0.30;;;11.00;62.50;;;;;;5114048;28;20429;-89
2022/05/16 00:17:46;;;;;;;3.17;0.87;;;11.20;1.00;;;;;;5115410;28;20832;-89
2022/05/16 00:20:14;;;;;;;2.63;0.40;;;11.30;1.00;;;;;;5114909;27;20406;-91
2022/05/16 00:22:40;;;;;;;3.60;0.63;;;10.90;13.90;;;;;;5115338;28;20416;-87
2022/05/16 00:25:07;;;;;;;2.00;0.37;;;10.70;99.90;;;;;;5113327;28;20925;-88
2022/05/16 00:27:36;;;;;;;5.57;1.20;;;10.60;99.90;;;;;;5114163;28;20653;-86
2022/05/16 00:30:04;;;;;;;1.50;0.30;;;10.60;99.90;;;;;;5115807;28;20418;-92
2022/05/16 00:32:33;;;;;;;1.97;0.27;;;11.10;1.00;;;;;;5115979;28;20398;-90
2022/05/16 00:34:59;;;;;;;3.60;0.77;;;11.10;1.00;;;;;;5114249;28;20793;-88
2022/05/16 00:37:25;;;;;;;10.37;1.40;;;11.10;1.00;;;;;;5114367;28;20871;-90
2022/05/16 00:39:53;;;;;;;2.70;0.53;;;11.30;1.00;;;;;;5114404;28;20602;-92
2022/05/16 00:42:19;;;;;;;3.70;1.00;;;11.20;1.00;;;;;;5148318;27;20177;-92
2022/05/16 00:44:45;;;;;;;4.67;0.50;;;11.00;24.20;;;;;;5115481;28;20785;-90
2022/05/16 00:47:11;;;;;;;2.80;0.60;;;11.00;24.70;;;;;;5115782;28;20654;-89
2022/05/16 00:49:42;;;;;;;2.50;0.40;;;11.20;1.00;;;;;;5115434;28;20417;-90
2022/05/16 00:52:13;;;;;;;2.20;0.30;;;11.10;1.00;;;;;;5115544;28;20174;-88
2022/05/16 00:54:43;;;;;;;2.30;0.40;;;11.00;32.30;;;;;;5114262;28;20423;-92
2022/05/16 00:57:17;;;;;;;1.87;0.40;;;10.80;99.90;;;;;;5114371;28;20413;-92
2022/05/16 01:00:02;;;;;;;2.63;1.07;;;10.70;99.90;;;;;;5115443;28;20483;-92
2022/05/16 01:05:14;;;;;;;4.30;1.00;;;10.80;99.90;;;;;;5115628;28;20821;-93
2022/05/16 01:07:42;;;;;;;1.50;0.73;;;10.90;99.90;;;;;;5115455;28;20413;-91
2022/05/16 01:10:12;;;;;;;4.83;1.20;;;10.80;99.90;;;;;;5115280;28;20197;-93
2022/05/16 01:12:41;;;;;;;3.03;0.80;;;10.90;99.90;;;;;;5115487;28;20427;-92
2022/05/16 01:15:16;;;;;;;4.33;1.07;;;10.90;99.90;;;;;;5114442;28;20832;-93
2022/05/16 01:17:41;;;;;;;5.30;0.70;;;10.90;95.90;;;;;;5115292;28;20483;-91
2022/05/16 01:20:09;;;;;;;2.83;1.10;;;11.00;71.20;;;;;;5115284;28;20454;-91
2022/05/16 01:22:47;;;;;;;6.30;1.60;;;11.00;90.80;;;;;;5115397;28;20221;-89
2022/05/16 01:25:19;;;;;;;3.90;1.03;;;11.20;23.70;;;;;;5114953;27;20786;-92
2022/05/16 01:28:17;;;;;;;4.37;0.50;;;11.20;20.10;;;;;;5115204;28;20394;-90
2022/05/16 01:30:47;;;;;;;4.83;1.20;;;11.10;59.30;;;;;;5131187;27;20459;-91
2022/05/16 01:33:17;;;;;;;1.90;0.63;;;11.10;52.70;;;;;;5115404;28;20408;-89
2022/05/16 01:35:43;;;;;;;3.90;0.97;;;11.10;73.30;;;;;;5113546;28;20421;-88
2022/05/16 01:38:26;;;;;;;3.10;0.90;;;11.00;89.20;;;;;;5114396;28;20965;-90
2022/05/16 01:41:16;;;;;;;4.80;1.23;;;11.10;43.70;;;;;;5114274;28;20408;-90
2022/05/16 01:43:45;;;;;;;4.90;1.50;;;11.20;11.00;;;;;;5147406;27;20428;-89
2022/05/16 01:46:18;;;;;;;5.90;1.60;;;11.30;1.00;;;;;;5114333;28;21079;-90
2022/05/16 01:48:43;;;;;;;3.67;0.60;;;11.10;39.60;;;;;;5113977;28;20422;-89
2022/05/16 01:51:11;;;;;;;3.80;1.10;;;11.00;49.30;;;;;;5114831;28;20461;-90
2022/05/16 01:53:38;;;;;;;3.60;0.73;;;11.00;27.30;;;;;;5114486;28;20177;-86
2022/05/16 01:56:09;;;;;;;3.83;1.20;;;10.90;69.40;;;;;;5113663;28;20404;-88
2022/05/16 01:58:35;;;;;;;3.77;1.30;;;11.00;43.40;;;;;;5112464;28;20915;-88
2022/05/16 02:01:00;;;;;;;3.97;0.63;;;11.00;1.60;;;;;;5112143;28;20445;-87
2022/05/16 02:03:26;;;;;;;2.30;1.00;;;11.20;1.00;;;;;;5113592;28;20269;-88
2022/05/16 02:05:52;;;;;;;3.13;0.77;;;11.30;1.00;;;;;;5112566;28;20203;-88
2022/05/16 02:08:17;;;;;;;3.73;1.13;;;11.30;1.00;;;;;;5113478;28;20182;-88
2022/05/16 02:10:47;;;;;;;3.87;0.70;;;11.20;1.00;;;;;;5112417;28;20194;-87
2022/05/16 02:13:12;;;;;;;7.97;0.87;;;11.20;1.00;;;;;;5113399;28;20169;-86
2022/05/16 02:15:39;;;;;;;3.80;1.40;;;11.20;1.00;;;;;;5113297;28;20517;-88
2022/05/16 02:18:06;;;;;;;6.23;1.20;;;11.20;1.00;;;;;;5115094;28;20200;-87
2022/05/16 02:20:31;;;;;;;1.33;0.57;;;11.20;1.00;;;;;;5133931;27;20449;-87
2022/05/16 02:25:44;;;;;;;4.37;0.40;;;11.20;1.00;;;;;;5133899;27;20187;-86
2022/05/16 02:28:14;;;;;;;1.70;1.33;;;11.20;1.00;;;;;;5133954;27;20417;-87
2022/05/16 02:30:41;;;;;;;3.70;0.60;;;11.10;1.00;;;;;;5133978;27;20911;-87
2022/05/16 02:33:07;;;;;;;2.70;1.40;;;11.00;1.00;;;;;;5133894;27;20824;-87
2022/05/16 02:35:33;;;;;;;1.97;0.77;;;11.00;1.00;;;;;;5134141;27;20504;-88
2022/05/16 02:38:00;;;;;;;2.50;1.13;;;11.00;1.00;;;;;;5132683;27;20433;-87
2022/05/16 02:40:30;;;;;;;1.90;1.00;;;11.00;1.00;;;;;;5133430;27;20418;-87
2022/05/16 02:42:59;;;;;;;4.03;0.90;;;11.20;1.00;;;;;;5133895;27;20734;-87
2022/05/16 02:45:27;;;;;;;4.17;0.90;;;11.20;1.00;;;;;;5133690;27;20421;-87
2022/05/16 02:47:52;;;;;;;7.13;1.30;;;11.20;1.00;;;;;;5133828;27;20404;-88
2022/05/16 02:50:20;;;;;;;5.10;0.97;;;11.20;1.00;;;;;;5134142;27;20952;-90
2022/05/16 02:52:45;;;;;;;4.40;0.93;;;11.20;1.00;;;;;;5133260;27;20175;-90
2022/05/16 02:55:11;;;;;;;3.47;1.10;;;11.20;1.00;;;;;;5133974;27;20531;-90
2022/05/16 02:57:37;;;;;;;4.57;0.97;;;11.20;1.00;;;;;;5133984;27;20215;-89
2022/05/16 03:00:05;;;;;;;4.03;0.77;;;11.20;1.00;;;;;;5134601;28;20211;-92
2022/05/16 03:02:30;;;;;;;2.83;1.07;;;11.20;1.00;;;;;;5134697;27;20260;-91
2022/05/16 03:04:56;;;;;;;1.83;0.50;;;11.20;1.00;;;;;;5134703;27;20502;-90
2022/05/16 03:07:22;;;;;;;3.07;1.23;;;11.20;1.00;;;;;;5137816;27;20627;-90
2022/05/16 03:09:47;;;;;;;2.17;0.70;;;11.10;1.00;;;;;;5136899;27;20178;-92
2022/05/16 03:12:13;;;;;;;3.83;1.67;;;11.10;1.00;;;;;;5137226;27;20584;-92
2022/05/16 03:14:39;;;;;;;2.17;0.70;;;11.10;1.00;;;;;;5136947;27;20275;-90
2022/05/16 03:17:05;;;;;;;3.70;1.33;;;11.10;1.00;;;;;;5136261;27;20476;-89
2022/05/16 03:19:31;;;;;;;3.30;1.27;;;11.10;1.00;;;;;;5136763;27;20221;-91
2022/05/16 03:21:56;;;;;;;2.47;1.20;;;11.20;1.00;;;;;;5137895;27;20409;-90
2022/05/16 03:24:22;;;;;;;4.73;1.20;;;11.10;1.00;;;;;;5136114;27;20240;-87
2022/05/16 03:26:47;;;;;;;3.60;0.77;;;11.00;20.80;;;;;;5136668;27;20164;-87
2022/05/16 03:29:14;;;;;;;4.60;0.63;;;11.10;8.30;;;;;;5137679;27;20171;-88
2022/05/16 03:31:45;;;;;;;4.30;1.23;;;11.10;1.10;;;;;;5136428;27;20536;-89
2022/05/16 03:34:12;;;;;;;5.83;0.83;;;11.10;12.50;;;;;;5136004;27;20528;-90
2022/05/16 03:36:40;;;;;;;3.60;0.70;;;11.10;4.00;;;;;;5137118;27;20406;-88
2022/05/16 03:41:51;;;;;;;6.80;0.93;;;11.20;1.00;;;;;;5137706;27;20392;-90
2022/05/16 03:44:18;;;;;;;4.43;0.97;;;11.20;1.00;;;;;;5137146;27;20461;-88
2022/05/16 03:46:48;;;;;;;7.43;1.43;;;11.20;1.00;;;;;;5137081;27;20413;-91
2022/05/16 03:49:13;;;;;;;2.87;0.70;;;11.20;1.00;;;;;;5137313;27;20405;-88
2022/05/16 03:51:39;;;;;;;3.73;1.27;;;11.20;1.00;;;;;;5137170;27;20777;-89
2022/05/16 03:54:05;;;;;;;3.30;0.87;;;11.20;1.00;;;;;;5136928;27;20735;-88
2022/05/16 03:56:32;;;;;;;6.57;1.37;;;11.20;1.00;;;;;;5136994;27;20410;-88
2022/05/16 03:58:58;;;;;;;8.73;2.30;;;11.20;1.00;;;;;;5136825;27;20835;-87
2022/05/16 04:01:25;;;;;;;4.57;1.10;;;11.20;1.00;;;;;;5136986;27;20606;-88
2022/05/16 04:03:51;;;;;;;3.73;1.80;;;11.10;3.70;;;;;;5136743;27;20445;-88
2022/05/16 04:06:17;;;;;;;6.70;1.13;;;11.20;1.00;;;;;;5136854;27;20463;-90
2022/05/16 04:08:43;;;;;;;5.93;1.43;;;11.20;6.60;;;;;;5136792;27;20210;-89
2022/05/16 04:11:10;;;;;;;7.00;1.77;;;11.20;1.00;;;;;;5136412;27;20446;-88
2022/05/16 04:13:36;;;;;;;3.70;1.03;;;11.20;2.00;;;;;;5136899;27;20465;-89
2022/05/16 04:16:02;;;;;;;4.47;1.23;;;11.20;8.50;;;;;;5178747;22;20999;-89
2022/05/16 04:18:28;;;;;;;6.87;1.53;;;11.10;6.80;;;;;;5055607;28;20564;-91
2022/05/16 04:20:54;;;;;;;3.37;1.00;;;11.20;15.40;;;;;;5054729;28;20461;-89
2022/05/16 04:23:19;;;;;;;8.47;1.50;;;11.20;32.50;;;;;;5055542;28;20178;-90
2022/05/16 04:25:45;;;;;;;3.17;1.40;;;11.20;7.60;;;;;;5054332;28;20210;-90
2022/05/16 04:28:11;;;;;;;3.27;2.23;;;11.20;17.70;;;;;;5055693;28;20178;-88
2022/05/16 04:30:39;;;;;;;4.40;1.07;;;11.30;36.00;;;;;;5056128;28;20418;-89
2022/05/16 04:33:06;;;;;;;3.80;1.33;;;11.30;20.80;;;;;;5055663;28;20405;-90
2022/05/16 04:35:38;;;;;;;5.70;1.43;;;11.30;1.00;;;;;;5055502;28;20931;-91
2022/05/16 04:38:06;;;;;;;4.57;1.73;;;11.50;1.00;;;;;;5056838;28;20922;-91
2022/05/16 04:40:32;;;;;;;5.27;1.30;;;11.50;1.00;;;;;;5056332;28;20422;-86
2022/05/16 04:42:58;;;;;;;3.10;0.87;;;11.60;1.00;;;;;;5056488;28;20902;-89
2022/05/16 04:45:27;;;;;;;4.17;1.07;;;11.60;1.00;;;;;;5056047;28;20497;-92
2022/05/16 04:47:59;;;;;;;3.20;0.97;;;11.70;1.00;;;;;;5056307;28;20407;-91
2022/05/16 04:50:31;;;;;;;4.70;1.10;;;11.80;1.00;;;;;;5055580;28;20917;-87
2022/05/16 04:52:58;;;;;;;4.17;0.83;;;11.90;1.00;;;;;;5055681;28;20430;-89
2022/05/16 04:55:25;;;;;;;6.13;0.93;;;12.00;1.00;;;;;;5053992;28;20447;-92
2022/05/16 04:57:51;;;;;;;4.33;0.90;;;12.10;1.00;;;;;;5055035;28;20763;-89
2022/05/16 05:00:21;;;;;;;3.33;0.80;;;12.10;1.00;;;;;;5054573;28;20422;-87
2022/05/16 05:02:47;;;;;;;2.83;1.00;;;12.20;1.00;;;;;;5054806;28;20164;-88
2022/05/16 05:05:15;;;;;;;5.60;1.67;;;12.20;1.00;;;;;;5054926;28;20822;-89
2022/05/16 05:07:42;;;;;;;5.27;1.17;;;12.30;1.00;;;;;;5054783;28;20754;-87
2022/05/16 05:15:39;;;;;;;4.60;0.90;;;12.40;1.00;;;;;;5055017;28;20411;-89
2022/05/16 05:18:06;;;;;;;3.60;0.97;;;12.50;1.00;;;;;;5053703;28;20525;-90
2022/05/16 05:20:34;;;;;;;6.10;1.27;;;12.60;1.00;;;;;;5054756;28;20427;-83
2022/05/16 05:23:01;;;;;;;5.70;1.40;;;12.70;1.00;;;;;;5055051;28;20485;-88
2022/05/16 05:25:27;;;;;;;1.80;0.73;;;12.90;1.00;;;;;;5056281;28;20841;-85
2022/05/16 05:27:59;;;;;;;5.03;1.17;;;13.00;99.90;;;;;;5055708;28;20512;-87
2022/05/16 05:30:29;;;;;;;8.20;1.83;;;13.30;99.90;;;;;;5052795;28;20963;-89
2022/05/16 05:32:54;;;;;;;3.87;0.93;;;13.60;99.90;;;;;;5051649;28;20558;-88
2022/05/16 05:35:21;;;;;;;4.60;1.33;;;13.90;99.90;;;;;;5054837;28;20451;-85
2022/05/16 05:37:47;;;;;;;3.63;1.23;;;14.10;99.90;;;;;;5055563;28;20416;-90
2022/05/16 05:40:13;;;;;;;3.80;1.47;;;14.40;99.90;;;;;;5055103;28;20507;-87
2022/05/16 05:42:40;;;;;;;4.17;0.90;;;14.50;99.90;;;;;;5053559;28;20447;-88
2022/05/16 05:45:07;;;;;;;3.97;1.60;;;14.70;99.90;;;;;;5054056;28;20420;-92
2022/05/16 05:47:39;;;;;;;5.20;0.87;;;15.10;99.90;;;;;;5055595;28;20409;-90
2022/05/16 05:50:07;;;;;;;4.60;0.80;;;15.30;99.90;;;;;;5056438;28;20415;-88
2022/05/16 05:52:33;;;;;;;4.17;0.80;;;15.60;99.90;;;;;;5053575;28;20425;-91
2022/05/16 05:54:58;;;;;;;3.47;0.90;;;16.00;1.00;;;;;;5051682;28;20425;-86
2022/05/16 05:57:25;;;;;;;2.40;1.37;;;16.10;1.00;;;;;;5054308;28;21008;-88
2022/05/16 05:59:52;;;;;;;6.40;1.40;;;15.90;1.00;;;;;;5055097;28;20211;-87
2022/05/16 06:02:18;;;;;;;5.87;1.13;;;16.20;33.90;;;;;;5053314;28;20990;-88
2022/05/16 06:04:45;;;;;;;4.63;1.07;;;16.40;1.00;;;;;;5053253;28;20417;-84
2022/05/16 06:07:11;;;;;;;4.43;1.30;;;16.80;1.00;;;;;;5051883;28;20903;-83
2022/05/16 06:09:36;;;;;;;4.63;0.80;;;16.70;1.00;;;;;;5052620;28;20514;-88
2022/05/16 06:12:05;;;;;;;4.50;1.23;;;16.20;99.90;;;;;;5053049;28;20209;-87
2022/05/16 06:14:34;;;;;;;5.00;1.60;;;16.30;1.00;;;;;;5055842;28;20697;-86
2022/05/16 06:16:59;;;;;;;4.20;0.90;;;16.20;1.00;;;;;;5052826;28;20463;-87
2022/05/16 06:19:25;;;;;;;4.30;1.47;;;16.30;1.00;;;;;;5053030;28;20483;-83
2022/05/16 06:21:50;;;;;;;4.73;1.17;;;16.80;1.00;;;;;;5051913;28;20180;-85
2022/05/16 06:27:01;;;;;;;5.03;1.37;;;18.80;99.90;;;;;;5052940;28;20211;-86
2022/05/16 06:29:30;;;;;;;3.43;1.00;;;19.80;99.90;;;;;;5051674;28;20422;-82
2022/05/16 06:31:55;;;;;;;3.07;0.90;;;20.80;90.40;;;;;;5052697;28;20413;-85
2022/05/16 06:34:21;;;;;;;6.60;1.60;;;21.60;38.40;;;;;;5053283;28;20422;-85
2022/05/16 06:36:47;;;;;;;5.53;1.13;;;22.20;24.50;;;;;;5052684;28;20582;-86
2022/05/16 06:39:12;;;;;;;3.80;0.83;;;23.30;11.50;;;;;;5052164;28;20214;-85
2022/05/16 06:41:39;;;;;;;4.93;1.07;;;23.70;1.00;;;;;;5055057;28;20199;-82
2022/05/16 06:44:05;;;;;;;4.20;1.07;;;24.00;1.00;;;;;;5056339;28;20177;-86
2022/05/16 06:46:30;;;;;;;3.43;1.10;;;24.20;1.00;;;;;;5056480;28;20817;-86
2022/05/16 06:48:56;;;;;;;4.37;0.70;;;24.60;1.00;;;;;;5056573;28;20177;-84
2022/05/16 06:51:24;;;;;;;6.23;1.43;;;24.40;1.00;;;;;;5056354;28;20169;-85
2022/05/16 06:53:51;;;;;;;3.17;1.07;;;23.80;1.00;;;;;;5055928;28;20176;-82
2022/05/16 06:56:17;;;;;;;4.00;0.50;;;24.50;1.00;;;;;;5055554;28;20447;-82
2022/05/16 06:58:43;;;;;;;3.17;0.87;;;25.00;1.00;;;;;;5054823;28;20553;-82
2022/05/16 07:01:08;;;;;;;2.50;0.60;;;25.00;1.00;;;;;;5055479;28;20411;-85
2022/05/16 07:03:35;;;;;;;2.37;1.00;;;25.20;1.00;;;;;;5055497;28;20197;-84
2022/05/16 07:06:01;;;;;;;3.77;1.00;;;25.60;1.00;;;;;;5055536;28;20626;-83
2022/05/16 07:08:26;;;;;;;3.20;1.10;;;25.20;1.00;;;;;;5055131;28;20417;-85
2022/05/16 07:10:53;;;;;;;4.73;1.17;;;25.60;1.00;;;;;;5055627;28;20235;-85
2022/05/16 07:13:19;;;;;;;3.40;1.17;;;;;;;;;;5055971;28;20165;-85
2022/05/16 07:15:44;;;;;;;4.93;0.93;;;26.20;1.00;;;;;;5054652;28;20469;-86
2022/05/16 07:18:10;;;;;;;3.77;0.87;;;25.90;1.00;;;;;;5056108;28;20165;-84
2022/05/16 07:20:37;;;;;;;4.77;1.13;;;26.20;1.00;;;;;;5055948;28;20197;-83
2022/05/16 07:23:06;;;;;;;4.43;1.33;;;25.90;1.00;;;;;;5055660;28;20817;-85
2022/05/16 07:28:20;;;;;;;3.93;1.40;;;24.90;1.00;;;;;;5055924;28;20814;-82
2022/05/16 07:30:46;;;;;;;3.20;0.93;;;24.50;1.00;;;;;;5055600;28;20416;-82
2022/05/16 07:33:11;;;;;;;3.23;0.90;;;23.30;1.00;;;;;;5055473;28;20850;-85
2022/05/16 07:35:38;;;;;;;4.40;1.23;;;22.40;1.00;;;;;;5055431;28;20173;-82
2022/05/16 07:38:05;;;;;;;3.47;1.17;;;22.30;1.00;;;;;;5055362;28;20264;-82
2022/05/16 07:40:34;;;;;;;4.83;1.53;;;22.40;1.00;;;;;;5055000;28;20780;-81
2022/05/16 07:43:00;;;;;;;4.20;1.40;;;22.60;1.00;;;;;;5054072;28;20474;-84
2022/05/16 07:45:30;;;;;;;5.07;1.40;;;23.00;1.00;;;;;;5055274;28;20489;-85
2022/05/16 07:48:02;;;;;;;4.73;1.30;;;23.20;1.00;;;;;;5055128;28;20815;-82
2022/05/16 07:50:29;;;;;;;2.00;0.70;;;23.40;1.00;;;;;;5055250;28;20550;-85
2022/05/16 07:52:55;;;;;;;2.20;0.90;;;24.10;1.00;;;;;;5054799;28;20411;-85
2022/05/16 07:55:23;;;;;;;3.53;1.40;;;24.90;1.00;;;;;;5054673;28;20424;-85
2022/05/16 07:57:49;;;;;;;3.83;1.47;;;24.70;1.00;;;;;;5055139;28;20498;-84
2022/05/16 08:00:16;;;;;;;3.77;1.00;;;24.80;1.00;;;;;;5055061;28;20509;-86
2022/05/16 08:02:42;;;;;;;1.90;0.90;;;24.60;1.00;;;;;;5054969;28;20165;-86
2022/05/16 08:05:10;;;;;;;5.43;1.17;;;25.80;1.00;;;;;;5054986;28;20420;-86
2022/05/16 08:10:28;;;;;;;4.10;1.40;;;26.80;1.00;;;;;;5054919;28;20181;-85
2022/05/16 08:10:30;;;;;;;2.77;0.87;;;27.30;1.00;;;;;;5054573;28;20493;-85
2022/05/16 08:13:07;;;;;;;2.37;1.00;;;27.70;1.00;;;;;;5054885;28;20414;-86
2022/05/16 08:15:34;;;;;;;5.10;1.03;;;26.90;1.00;;;;;;5054741;28;20895;-83
2022/05/16 08:18:02;;;;;;;5.17;0.97;;;27.60;1.00;;;;;;5054604;28;20420;-86
2022/05/16 08:20:28;;;;;;;4.97;2.13;;;27.40;1.00;;;;;;5054678;28;20412;-84
2022/05/16 08:22:57;;;;;;;3.17;1.30;;;26.60;1.00;;;;;;5054600;28;20771;-86
2022/05/16 08:25:23;;;;;;;3.07;0.80;;;25.40;1.00;;;;;;5054276;28;20496;-85
2022/05/16 08:27:51;;;;;;;4.00;1.17;;;25.90;1.00;;;;;;5054556;28;20831;-82
2022/05/16 08:30:19;;;;;;;3.17;0.63;;;26.10;1.00;;;;;;5054500;28;20252;-85
2022/05/16 08:32:45;;;;;;;1.90;0.93;;;27.00;1.00;;;;;;5054425;28;20516;-84
2022/05/16 08:35:13;;;;;;;3.63;1.00;;;28.20;1.00;;;;;;5054392;28;20421;-83
2022/05/16 08:40:41;;;;;;;3.73;1.07;;;27.20;1.00;;;;;;5054231;28;20424;-86
2022/05/16 08:43:16;;;;;;;2.90;0.73;;;28.10;1.00;;;;;;5054230;28;20454;-86
2022/05/16 08:46:02;;;;;;;2.53;1.17;;;28.90;1.00;;;;;;5054290;28;20423;-85
2022/05/16 08:48:37;;;;;;;3.50;1.10;;;29.10;1.00;;;;;;5054513;28;20561;-86
2022/05/16 08:51:08;;;;;;;5.60;1.50;;;27.10;1.00;;;;;;5054194;28;20415;-86
2022/05/16 08:53:52;;;;;;;6.37;1.50;;;25.90;1.00;;;;;;5053954;28;20465;-82
2022/05/16 08:56:26;;;;;;;3.07;1.00;;;24.70;1.00;;;;;;5054090;28;20408;-86
2022/05/16 08:58:58;;;;;;;5.00;1.33;;;24.60;1.00;;;;;;5053949;28;21029;-85
2022/05/16 09:01:43;;;;;;;3.80;0.90;;;25.00;1.00;;;;;;5052661;28;20437;-85
2022/05/16 09:04:14;;;;;;;3.80;0.87;;;24.90;1.00;;;;;;5053274;28;20444;-86
2022/05/16 09:06:56;;;;;;;2.90;1.00;;;25.40;1.00;;;;;;5053740;28;20408;-85
2022/05/16 09:09:27;;;;;;;3.80;0.50;;;26.30;1.00;;;;;;5053477;28;20423;-85
2022/05/16 09:12:15;;;;;;;2.80;0.80;;;26.90;1.00;;;;;;5053765;28;20466;-85
2022/05/16 09:15:03;;;;;;;3.77;1.07;;;28.20;1.00;;;;;;5053687;28;20994;-84
2022/05/16 09:17:34;;;;;;;3.37;0.83;;;28.70;1.00;;;;;;5053499;28;20975;-86
2022/05/16 09:20:13;;;;;;;1.73;0.63;;;29.50;1.00;;;;;;5053515;28;20464;-86
2022/05/16 09:22:51;;;;;;;2.97;0.77;;;29.00;1.00;;;;;;5052317;28;20423;-85
2022/05/16 09:25:19;;;;;;;2.80;0.93;;;29.50;1.00;;;;;;5053375;28;20438;-86
2022/05/16 09:30:34;;;;;;;2.57;0.80;;;28.90;1.00;;;;;;5053831;28;20431;-83
2022/05/16 09:33:09;;;;;;;2.50;1.03;;;29.10;1.00;;;;;;5053308;28;20412;-85
2022/05/16 09:35:55;;;;;;;2.47;0.83;;;29.00;1.00;;;;;;5053518;28;20268;-87
2022/05/16 09:38:22;;;;;;;3.57;1.20;;;29.10;1.00;;;;;;5054171;28;20855;-86
2022/05/16 09:41:02;;;;;;;5.10;1.37;;;29.40;1.00;;;;;;5054182;28;20424;-86
2022/05/16 09:43:33;;;;;;;3.13;0.70;;;28.60;1.00;;;;;;5053130;28;20423;-87
2022/05/16 09:46:09;;;;;;;3.50;1.10;;;29.30;1.00;;;;;;5053319;28;20457;-88
2022/05/16 09:48:36;;;;;;;1.80;0.60;;;29.90;1.00;;;;;;5053193;28;20415;-86
2022/05/16 09:51:05;;;;;;;2.33;0.70;;;30.30;1.00;;;;;;5053180;28;20916;-86
2022/05/16 09:53:45;;;;;;;3.50;0.73;;;30.20;1.00;;;;;;5052712;28;20462;-83
2022/05/16 09:56:26;;;;;;;1.90;0.73;;;30.40;1.00;;;;;;5053097;28;20408;-86
2022/05/16 09:58:56;;;;;;;1.80;0.70;;;31.10;1.00;;;;;;5053006;28;20494;-86
2022/05/16 10:01:59;;;;;;;1.10;0.40;;;31.00;1.00;;;;;;5052998;28;20409;-87
2022/05/16 10:04:25;;;;;;;2.53;0.70;;;30.80;1.00;;;;;;5052591;28;20431;-87
2022/05/16 10:07:03;;;;;;;4.43;0.90;;;30.60;1.00;;;;;;5053169;28;20794;-85
2022/05/16 10:09:50;;;;;;;1.83;0.70;;;29.90;1.00;;;;;;5052624;28;20214;-86
2022/05/16 10:12:20;;;;;;;2.27;0.77;;;30.30;1.00;;;;;;5052999;28;20412;-86
2022/05/16 10:14:46;;;;;;;2.97;0.60;;;30.20;1.00;;;;;;5054068;28;20420;-84
2022/05/16 10:17:20;;;;;;;1.80;0.57;;;30.10;1.00;;;;;;5056951;28;20456;-86
2022/05/16 10:19:47;;;;;;;3.17;0.90;;;30.40;1.00;;;;;;5056966;28;20989;-84
2022/05/16 10:22:22;;;;;;;3.00;0.80;;;30.30;1.00;;;;;;5057002;28;20407;-86
2022/05/16 10:24:52;;;;;;;3.20;0.70;;;29.90;1.00;;;;;;5056575;28;20589;-86
2022/05/16 10:27:26;;;;;;;3.43;1.77;;;29.60;1.00;;;;;;5056818;28;20409;-86
2022/05/16 10:29:55;;;;;;;3.07;1.07;;;30.10;1.00;;;;;;5056768;28;20415;-85
2022/05/16 10:35:28;;;;;;;1.87;0.50;;;29.10;1.00;;;;;;5056680;28;20962;-85
2022/05/16 10:37:57;;;;;;;3.73;0.80;;;29.80;1.00;;;;;;5056338;28;20431;-86
2022/05/16 10:40:29;;;;;;;1.60;0.97;;;30.10;1.00;;;;;;5056640;28;20479;-85
2022/05/16 10:43:20;;;;;;;3.63;1.27;;;30.40;1.00;;;;;;5055843;28;20442;-86
2022/05/16 10:45:51;;;;;;;1.53;0.80;;;29.90;1.00;;;;;;5057170;28;20477;-85
2022/05/16 10:48:24;;;;;;;3.47;0.90;;;29.70;1.00;;;;;;5056977;28;20447;-86
2022/05/16 10:51:21;;;;;;;6.13;0.97;;;30.30;1.00;;;;;;5058155;28;20416;-84
2022/05/16 10:54:05;;;;;;;2.87;0.57;;;30.30;1.00;;;;;;5067660;28;20490;-87
2022/05/16 10:57:04;;;;;;;2.37;0.60;;;29.60;1.00;;;;;;5089495;28;20411;-86
2022/05/16 10:59:53;;;;;;;4.00;0.93;;;29.30;1.00;;;;;;5058993;28;20473;-86
2022/05/16 11:02:25;;;;;;;1.63;0.83;;;30.40;1.00;;;;;;5092361;28;20487;-87
2022/05/16 11:05:28;;;;;;;1.80;0.70;;;29.10;1.00;;;;;;5091978;28;20402;-90
2022/05/16 11:08:09;;;;;;;4.80;1.03;;;29.80;1.00;;;;;;5092430;28;20908;-88
2022/05/16 11:10:43;;;;;;;2.80;0.80;;;29.30;1.00;;;;;;5093609;28;20482;-86
2022/05/16 11:13:25;;;;;;;2.63;1.30;;;29.50;1.00;;;;;;5093757;28;20395;-85
2022/05/16 11:15:56;;;;;;;3.53;1.00;;;29.10;1.00;;;;;;5091776;28;20450;-87
2022/05/16 11:19:01;;;;;;;3.03;1.57;;;29.10;1.00;;;;;;5091205;28;20454;-83
2022/05/16 11:21:49;;;;;;;3.60;1.30;;;29.20;1.00;;;;;;5076637;28;20415;-86
2022/05/16 11:24:17;;;;;;;2.10;0.73;;;29.50;1.00;;;;;;5096673;28;20430;-87
2022/05/16 11:27:01;;;;;;;2.57;0.73;;;28.30;1.00;;;;;;5096458;28;20449;-85
2022/05/16 11:29:50;;;;;;;1.87;0.77;;;28.10;1.00;;;;;;5095739;28;20423;-84
2022/05/16 11:32:39;;;;;;;2.33;0.90;;;29.60;1.00;;;;;;5090048;28;20443;-88
2022/05/16 11:35:26;;;;;;;1.33;0.57;;;30.40;1.00;;;;;;5077217;28;20469;-87
2022/05/16 11:38:10;;;;;;;2.90;0.90;;;29.60;1.00;;;;;;5076693;28;20445;-85
2022/05/16 11:40:46;;;;;;;2.40;1.00;;;28.90;1.00;;;;;;5077096;28;20427;-87
2022/05/16 11:43:26;;;;;;;2.17;0.80;;;28.20;1.00;;;;;;5076022;28;20410;-85
2022/05/16 11:46:39;;;;;;;3.53;1.20;;;28.30;1.00;;;;;;5076147;28;20927;-85
2022/05/16 11:49:35;;;;;;;1.73;0.60;;;28.70;1.00;;;;;;5052643;28;20411;-85
2022/05/16 11:52:27;;;;;;;3.03;0.80;;;28.70;1.00;;;;;;5075234;28;20450;-86
2022/05/16 11:55:04;;;;;;;3.60;1.03;;;29.20;1.00;;;;;;5075807;28;20404;-86
2022/05/16 12:03:06;;;;;;;4.20;1.20;;;29.30;1.00;;;;;;5075701;28;20502;-86
2022/05/16 12:05:44;;;;;;;2.30;0.90;;;29.80;1.00;;;;;;5075206;28;20427;-90
2022/05/16 12:08:15;;;;;;;5.57;1.03;;;29.20;1.00;;;;;;5074747;28;20407;-89
2022/05/16 12:11:03;;;;;;;1.63;0.80;;;28.60;1.00;;;;;;5074029;28;20526;-81
2022/05/16 12:13:33;;;;;;;2.37;1.10;;;29.00;1.00;;;;;;5075123;28;20434;-82
2022/05/16 12:16:13;;;;;;;2.83;0.43;;;;;;;;;;5074861;28;20465;-81
2022/05/16 12:18:49;;;;;;;2.27;1.10;;;29.70;1.00;;;;;;5074775;28;20498;-83
2022/05/16 12:21:34;;;;;;;2.60;0.90;;;29.90;1.00;;;;;;5074805;28;20438;-80
2022/05/16 12:24:05;;;;;;;2.40;0.80;;;29.10;1.00;;;;;;5074162;28;20512;-82
2022/05/16 12:26:52;;;;;;;2.57;0.80;;;29.60;1.00;;;;;;5074634;28;20403;-84
2022/05/16 12:29:23;;;;;;;2.70;1.13;;;28.60;1.00;;;;;;5073182;28;20472;-82
2022/05/16 12:31:52;;;;;;;2.30;0.67;;;27.70;1.00;;;;;;5057256;28;20509;-81
2022/05/16 12:34:30;;;;;;;1.57;0.60;;;27.80;1.00;;;;;;5074559;28;20402;-81
2022/05/16 12:36:57;;;;;;;2.67;1.10;;;28.50;1.00;;;;;;5074445;28;20426;-82
2022/05/16 12:39:35;;;;;;;4.10;0.93;;;28.40;1.00;;;;;;5072899;28;21010;-83
2022/05/16 12:42:38;;;;;;;4.20;1.10;;;29.10;1.00;;;;;;5064369;28;20503;-82
2022/05/16 12:45:25;;;;;;;1.83;1.20;;;29.60;1.00;;;;;;5052984;28;20451;-81
2022/05/16 12:48:15;;;;;;;2.47;0.63;;;29.50;1.00;;;;;;5049778;28;20408;-81
2022/05/16 12:51:09;;;;;;;2.03;0.67;;;29.70;1.00;;;;;;5051375;28;20416;-81
2022/05/16 12:54:12;;;;;;;2.80;0.80;;;29.60;1.00;;;;;;5051421;28;20462;-82
2022/05/16 12:56:56;;;;;;;4.33;1.23;;;29.50;1.00;;;;;;5051813;28;20997;-81
2022/05/16 12:59:41;;;;;;;3.03;0.73;;;29.50;1.00;;;;;;5050084;28;20468;-79
2022/05/16 13:02:29;;;;;;;3.20;1.27;;;30.00;1.00;;;;;;5050607;28;20420;-81
2022/05/16 13:05:20;;;;;;;3.97;1.20;;;29.50;1.00;;;;;;5051661;28;20416;-86
2022/05/16 13:08:07;;;;;;;4.83;1.07;;;29.10;1.00;;;;;;5050294;28;20908;-82
2022/05/16 13:10:47;;;;;;;2.73;1.03;;;29.20;1.00;;;;;;5051064;28;20441;-85
2022/05/16 13:13:35;;;;;;;3.80;0.90;;;29.00;1.00;;;;;;5048661;28;20424;-82
2022/05/16 13:16:25;;;;;;;2.70;0.90;;;29.50;1.00;;;;;;5049176;28;20483;-81
2022/05/16 13:19:17;;;;;;;3.90;1.17;;;29.40;1.00;;;;;;5050582;28;20470;-81
2022/05/16 13:21:54;;;;;;;3.60;1.17;;;29.60;1.00;;;;;;5050072;28;20776;-83
2022/05/16 13:24:21;;;;;;;6.67;1.10;;;29.60;1.00;;;;;;5051673;28;20412;-83
2022/05/16 13:29:35;;;;;;;2.67;0.93;;;29.70;1.00;;;;;;5052433;28;20797;-86
2022/05/16 13:32:13;;;;;;;3.77;1.23;;;29.80;1.00;;;;;;5048270;28;20514;-87
2022/05/16 13:34:44;;;;;;;2.80;1.20;;;29.10;1.00;;;;;;5052289;28;20196;-85
2022/05/16 13:37:11;;;;;;;5.17;1.50;;;28.90;1.00;;;;;;5050369;28;20408;-81
2022/05/16 13:39:41;;;;;;;3.60;1.30;;;29.10;1.00;;;;;;5051546;28;20486;-84
2022/05/16 13:42:07;;;;;;;1.60;1.13;;;28.90;1.00;;;;;;5049408;28;20417;-85
2022/05/16 13:44:38;;;;;;;2.57;1.07;;;29.00;1.00;;;;;;5050574;28;20428;-80
2022/05/16 13:47:06;;;;;;;2.97;1.33;;;28.40;1.00;;;;;;5049239;28;20527;-85
2022/05/16 13:49:32;;;;;;;4.20;1.03;;;28.60;1.00;;;;;;5051202;28;20436;-87
2022/05/16 13:52:01;;;;;;;5.10;1.10;;;28.60;1.00;;;;;;5052809;28;20515;-85
2022/05/16 13:54:30;;;;;;;4.60;1.20;;;28.30;1.00;;;;;;5052518;28;20561;-80